sensor_id;sensor_type;location;lat;lon;timestamp;P1;durP1;ratioP1;P2;durP2;ratioP2
74624;SDS011;63131;52.298;8.056;2023-07-20T00:00:57;5.70;;;1.95;;
74624;SDS011;63131;52.298;8.056;2023-07-20T00:03:23;5.70;;;1.90;;
74624;SDS011;63131;52.298;8.056;2023-07-20T00:05:50;5.43;;;2.33;;
74624;SDS011;63131;52.298;8.056;2023-07-20T00:08:15;7.03;;;2.03;;
74624;SDS011;63131;52.298;8.056;2023-07-20T00:10:41;5.43;;;2.00;;
74624;SDS011;63131;52.298;8.056;2023-07-20T00:13:06;6.22;;;2.10;;
74624;SDS011;63131;52.298;8.056;2023-07-20T00:15:32;6.33;;;2.17;;
74624;SDS011;63131;52.298;8.056;2023-07-20T00:17:57;6.07;;;1.90;;
74624;SDS011;63131;52.298;8.056;2023-07-20T00:20:23;7.20;;;2.20;;
74624;SDS011;63131;52.298;8.056;2023-07-20T00:22:48;8.13;;;2.50;;
74624;SDS011;63131;52.298;8.056;2023-07-20T00:25:16;6.63;;;2.15;;
74624;SDS011;63131;52.298;8.056;2023-07-20T00:27:41;5.57;;;2.47;;
74624;SDS011;63131;52.298;8.056;2023-07-20T00:30:06;6.47;;;2.10;;
74624;SDS011;63131;52.298;8.056;2023-07-20T00:32:32;5.82;;;2.13;;
74624;SDS011;63131;52.298;8.056;2023-07-20T00:34:57;6.38;;;1.88;;
74624;SDS011;63131;52.298;8.056;2023-07-20T00:37:22;5.33;;;2.07;;
74624;SDS011;63131;52.298;8.056;2023-07-20T00:39:47;6.00;;;2.27;;
74624;SDS011;63131;52.298;8.056;2023-07-20T00:42:13;6.63;;;2.40;;
74624;SDS011;63131;52.298;8.056;2023-07-20T00:44:38;6.50;;;2.30;;
74624;SDS011;63131;52.298;8.056;2023-07-20T00:47:03;6.10;;;2.10;;
74624;SDS011;63131;52.298;8.056;2023-07-20T00:49:29;6.28;;;2.05;;
74624;SDS011;63131;52.298;8.056;2023-07-20T00:51:54;5.68;;;2.10;;
74624;SDS011;63131;52.298;8.056;2023-07-20T00:54:19;5.50;;;1.90;;
74624;SDS011;63131;52.298;8.056;2023-07-20T00:56:45;5.53;;;2.07;;
74624;SDS011;63131;52.298;8.056;2023-07-20T00:59:10;4.10;;;1.80;;
74624;SDS011;63131;52.298;8.056;2023-07-20T01:01:35;6.07;;;2.58;;
74624;SDS011;63131;52.298;8.056;2023-07-20T01:04:01;6.37;;;2.50;;
74624;SDS011;63131;52.298;8.056;2023-07-20T01:09:02;6.97;;;2.30;;
74624;SDS011;63131;52.298;8.056;2023-07-20T01:13:54;5.67;;;2.97;;
74624;SDS011;63131;52.298;8.056;2023-07-20T01:16:20;5.75;;;2.10;;
74624;SDS011;63131;52.298;8.056;2023-07-20T01:18:45;6.57;;;2.30;;
74624;SDS011;63131;52.298;8.056;2023-07-20T01:21:12;5.97;;;2.10;;
74624;SDS011;63131;52.298;8.056;2023-07-20T01:26:27;5.38;;;2.15;;
74624;SDS011;63131;52.298;8.056;2023-07-20T01:29:22;6.20;;;2.22;;
74624;SDS011;63131;52.298;8.056;2023-07-20T01:31:43;5.45;;;2.30;;
74624;SDS011;63131;52.298;8.056;2023-07-20T01:34:09;8.18;;;2.22;;
74624;SDS011;63131;52.298;8.056;2023-07-20T01:36:36;7.47;;;2.40;;
74624;SDS011;63131;52.298;8.056;2023-07-20T01:39:01;5.75;;;2.35;;
74624;SDS011;63131;52.298;8.056;2023-07-20T01:41:27;5.88;;;2.40;;
74624;SDS011;63131;52.298;8.056;2023-07-20T01:43:52;6.43;;;2.40;;
74624;SDS011;63131;52.298;8.056;2023-07-20T01:46:17;7.10;;;2.80;;
74624;SDS011;63131;52.298;8.056;2023-07-20T01:48:43;7.78;;;2.92;;
74624;SDS011;63131;52.298;8.056;2023-07-20T01:51:08;7.40;;;2.70;;
74624;SDS011;63131;52.298;8.056;2023-07-20T01:53:33;6.93;;;2.80;;
74624;SDS011;63131;52.298;8.056;2023-07-20T01:55:59;7.43;;;2.50;;
74624;SDS011;63131;52.298;8.056;2023-07-20T01:58:24;6.70;;;2.70;;
74624;SDS011;63131;52.298;8.056;2023-07-20T02:00:49;7.47;;;3.17;;
74624;SDS011;63131;52.298;8.056;2023-07-20T02:03:14;6.43;;;3.00;;
74624;SDS011;63131;52.298;8.056;2023-07-20T02:05:42;6.93;;;3.43;;
74624;SDS011;63131;52.298;8.056;2023-07-20T02:08:07;7.55;;;3.55;;
74624;SDS011;63131;52.298;8.056;2023-07-20T02:12:57;8.63;;;3.22;;
74624;SDS011;63131;52.298;8.056;2023-07-20T02:17:47;9.43;;;3.83;;
74624;SDS011;63131;52.298;8.056;2023-07-20T02:22:38;11.05;;;3.58;;
74624;SDS011;63131;52.298;8.056;2023-07-20T02:25:04;9.05;;;3.33;;
74624;SDS011;63131;52.298;8.056;2023-07-20T02:27:30;9.55;;;4.05;;
74624;SDS011;63131;52.298;8.056;2023-07-20T02:29:55;8.10;;;3.90;;
74624;SDS011;63131;52.298;8.056;2023-07-20T02:32:21;7.80;;;3.13;;
74624;SDS011;63131;52.298;8.056;2023-07-20T02:34:46;7.60;;;3.10;;
74624;SDS011;63131;52.298;8.056;2023-07-20T02:39:38;7.70;;;3.20;;
74624;SDS011;63131;52.298;8.056;2023-07-20T02:42:03;8.67;;;3.40;;
74624;SDS011;63131;52.298;8.056;2023-07-20T02:46:53;7.88;;;3.53;;
74624;SDS011;63131;52.298;8.056;2023-07-20T02:51:43;7.38;;;3.17;;
74624;SDS011;63131;52.298;8.056;2023-07-20T02:56:34;7.20;;;3.60;;
74624;SDS011;63131;52.298;8.056;2023-07-20T03:01:25;9.82;;;4.60;;
74624;SDS011;63131;52.298;8.056;2023-07-20T03:03:54;8.70;;;4.65;;
74624;SDS011;63131;52.298;8.056;2023-07-20T03:08:44;10.25;;;4.30;;
74624;SDS011;63131;52.298;8.056;2023-07-20T03:11:12;8.50;;;4.15;;
74624;SDS011;63131;52.298;8.056;2023-07-20T03:13:37;28.65;;;5.95;;
74624;SDS011;63131;52.298;8.056;2023-07-20T03:18:27;7.35;;;3.45;;
74624;SDS011;63131;52.298;8.056;2023-07-20T03:23:18;8.68;;;4.22;;
74624;SDS011;63131;52.298;8.056;2023-07-20T03:28:08;9.38;;;3.97;;
74624;SDS011;63131;52.298;8.056;2023-07-20T03:32:58;8.80;;;4.43;;
74624;SDS011;63131;52.298;8.056;2023-07-20T03:37:49;7.63;;;3.53;;
74624;SDS011;63131;52.298;8.056;2023-07-20T03:40:14;8.98;;;4.38;;
74624;SDS011;63131;52.298;8.056;2023-07-20T03:42:40;8.25;;;4.47;;
74624;SDS011;63131;52.298;8.056;2023-07-20T03:45:06;9.77;;;3.92;;
74624;SDS011;63131;52.298;8.056;2023-07-20T03:47:32;8.68;;;4.28;;
74624;SDS011;63131;52.298;8.056;2023-07-20T03:49:57;8.60;;;4.40;;
74624;SDS011;63131;52.298;8.056;2023-07-20T03:52:23;9.13;;;4.60;;
74624;SDS011;63131;52.298;8.056;2023-07-20T03:54:48;8.77;;;4.40;;
74624;SDS011;63131;52.298;8.056;2023-07-20T03:59:38;7.47;;;3.42;;
74624;SDS011;63131;52.298;8.056;2023-07-20T04:02:04;9.48;;;4.22;;
74624;SDS011;63131;52.298;8.056;2023-07-20T04:04:30;8.50;;;3.92;;
74624;SDS011;63131;52.298;8.056;2023-07-20T04:06:55;9.02;;;3.88;;
74624;SDS011;63131;52.298;8.056;2023-07-20T04:09:21;8.97;;;4.33;;
74624;SDS011;63131;52.298;8.056;2023-07-20T04:14:11;8.15;;;3.60;;
74624;SDS011;63131;52.298;8.056;2023-07-20T04:16:36;8.17;;;3.83;;
74624;SDS011;63131;52.298;8.056;2023-07-20T04:21:27;8.43;;;3.28;;
74624;SDS011;63131;52.298;8.056;2023-07-20T04:23:53;8.82;;;3.53;;
74624;SDS011;63131;52.298;8.056;2023-07-20T04:28:43;9.82;;;3.80;;
74624;SDS011;63131;52.298;8.056;2023-07-20T04:33:33;8.90;;;3.30;;
74624;SDS011;63131;52.298;8.056;2023-07-20T04:38:24;6.75;;;3.20;;
74624;SDS011;63131;52.298;8.056;2023-07-20T04:43:14;8.63;;;2.53;;
74624;SDS011;63131;52.298;8.056;2023-07-20T04:45:40;6.90;;;2.50;;
74624;SDS011;63131;52.298;8.056;2023-07-20T04:50:30;6.28;;;2.85;;
74624;SDS011;63131;52.298;8.056;2023-07-20T04:55:20;8.00;;;2.67;;
74624;SDS011;63131;52.298;8.056;2023-07-20T05:00:11;6.60;;;2.88;;
74624;SDS011;63131;52.298;8.056;2023-07-20T05:02:38;8.07;;;2.75;;
74624;SDS011;63131;52.298;8.056;2023-07-20T05:05:03;6.22;;;2.60;;
74624;SDS011;63131;52.298;8.056;2023-07-20T05:07:30;6.68;;;2.80;;
74624;SDS011;63131;52.298;8.056;2023-07-20T05:12:21;6.22;;;2.83;;
74624;SDS011;63131;52.298;8.056;2023-07-20T05:17:11;6.65;;;2.88;;
74624;SDS011;63131;52.298;8.056;2023-07-20T05:22:01;6.47;;;2.65;;
74624;SDS011;63131;52.298;8.056;2023-07-20T05:26:52;7.28;;;2.25;;
74624;SDS011;63131;52.298;8.056;2023-07-20T05:31:42;8.07;;;2.92;;
74624;SDS011;63131;52.298;8.056;2023-07-20T05:36:32;6.93;;;2.97;;
74624;SDS011;63131;52.298;8.056;2023-07-20T05:41:23;7.72;;;3.40;;
74624;SDS011;63131;52.298;8.056;2023-07-20T05:46:13;7.63;;;3.00;;
74624;SDS011;63131;52.298;8.056;2023-07-20T05:51:03;7.10;;;2.85;;
74624;SDS011;63131;52.298;8.056;2023-07-20T05:55:54;7.18;;;3.13;;
74624;SDS011;63131;52.298;8.056;2023-07-20T06:00:47;7.13;;;3.30;;
74624;SDS011;63131;52.298;8.056;2023-07-20T06:03:12;7.85;;;3.78;;
74624;SDS011;63131;52.298;8.056;2023-07-20T06:05:37;7.07;;;3.25;;
74624;SDS011;63131;52.298;8.056;2023-07-20T06:08:03;7.23;;;3.03;;
74624;SDS011;63131;52.298;8.056;2023-07-20T06:12:53;8.57;;;3.30;;
74624;SDS011;63131;52.298;8.056;2023-07-20T06:17:43;6.97;;;2.72;;
74624;SDS011;63131;52.298;8.056;2023-07-20T06:20:08;7.00;;;3.20;;
74624;SDS011;63131;52.298;8.056;2023-07-20T06:24:59;7.97;;;3.33;;
74624;SDS011;63131;52.298;8.056;2023-07-20T06:29:49;7.17;;;2.73;;
74624;SDS011;63131;52.298;8.056;2023-07-20T06:34:39;8.85;;;3.20;;
74624;SDS011;63131;52.298;8.056;2023-07-20T06:39:30;7.65;;;2.83;;
74624;SDS011;63131;52.298;8.056;2023-07-20T06:41:55;7.33;;;3.60;;
74624;SDS011;63131;52.298;8.056;2023-07-20T06:46:45;7.47;;;3.53;;
74624;SDS011;63131;52.298;8.056;2023-07-20T06:49:15;7.97;;;2.83;;
74624;SDS011;63131;52.298;8.056;2023-07-20T06:51:48;6.47;;;2.95;;
74624;SDS011;63131;52.298;8.056;2023-07-20T06:54:13;7.03;;;3.20;;
74624;SDS011;63131;52.298;8.056;2023-07-20T06:59:04;10.30;;;4.03;;
74624;SDS011;63131;52.298;8.056;2023-07-20T07:03:54;8.35;;;3.70;;
74624;SDS011;63131;52.298;8.056;2023-07-20T07:08:46;8.18;;;2.70;;
74624;SDS011;63131;52.298;8.056;2023-07-20T07:13:36;8.05;;;3.40;;
74624;SDS011;63131;52.298;8.056;2023-07-20T07:16:01;7.27;;;3.10;;
74624;SDS011;63131;52.298;8.056;2023-07-20T07:20:52;7.18;;;3.30;;
74624;SDS011;63131;52.298;8.056;2023-07-20T07:25:43;8.02;;;2.60;;
74624;SDS011;63131;52.298;8.056;2023-07-20T07:30:33;7.25;;;2.88;;
74624;SDS011;63131;52.298;8.056;2023-07-20T07:32:58;6.50;;;3.30;;
74624;SDS011;63131;52.298;8.056;2023-07-20T07:37:49;6.35;;;2.50;;
74624;SDS011;63131;52.298;8.056;2023-07-20T07:40:14;6.43;;;2.50;;
74624;SDS011;63131;52.298;8.056;2023-07-20T07:42:39;6.75;;;2.45;;
74624;SDS011;63131;52.298;8.056;2023-07-20T07:47:29;5.50;;;1.88;;
74624;SDS011;63131;52.298;8.056;2023-07-20T07:49:54;7.13;;;2.00;;
74624;SDS011;63131;52.298;8.056;2023-07-20T07:52:20;5.10;;;1.97;;
74624;SDS011;63131;52.298;8.056;2023-07-20T07:54:46;5.68;;;2.15;;
74624;SDS011;63131;52.298;8.056;2023-07-20T07:57:11;5.23;;;2.30;;
74624;SDS011;63131;52.298;8.056;2023-07-20T07:59:36;6.17;;;2.20;;
74624;SDS011;63131;52.298;8.056;2023-07-20T08:02:03;4.20;;;1.67;;
74624;SDS011;63131;52.298;8.056;2023-07-20T08:04:29;3.97;;;1.55;;
74624;SDS011;63131;52.298;8.056;2023-07-20T08:06:54;3.73;;;1.63;;
74624;SDS011;63131;52.298;8.056;2023-07-20T08:09:19;5.80;;;1.80;;
74624;SDS011;63131;52.298;8.056;2023-07-20T08:11:45;4.43;;;1.70;;
74624;SDS011;63131;52.298;8.056;2023-07-20T08:14:10;4.30;;;1.57;;
74624;SDS011;63131;52.298;8.056;2023-07-20T08:16:35;4.87;;;1.80;;
74624;SDS011;63131;52.298;8.056;2023-07-20T08:19:00;4.60;;;1.40;;
74624;SDS011;63131;52.298;8.056;2023-07-20T08:21:27;4.00;;;1.67;;
74624;SDS011;63131;52.298;8.056;2023-07-20T08:23:52;3.47;;;1.30;;
74624;SDS011;63131;52.298;8.056;2023-07-20T08:26:17;3.00;;;1.30;;
74624;SDS011;63131;52.298;8.056;2023-07-20T08:28:43;5.70;;;1.70;;
74624;SDS011;63131;52.298;8.056;2023-07-20T08:31:09;4.95;;;1.77;;
74624;SDS011;63131;52.298;8.056;2023-07-20T08:33:34;5.33;;;1.73;;
74624;SDS011;63131;52.298;8.056;2023-07-20T08:36:02;4.07;;;1.42;;
74624;SDS011;63131;52.298;8.056;2023-07-20T08:38:28;4.75;;;1.50;;
74624;SDS011;63131;52.298;8.056;2023-07-20T08:40:53;3.23;;;1.30;;
74624;SDS011;63131;52.298;8.056;2023-07-20T08:43:20;2.97;;;1.40;;
74624;SDS011;63131;52.298;8.056;2023-07-20T08:45:48;2.75;;;1.10;;
74624;SDS011;63131;52.298;8.056;2023-07-20T08:48:14;5.95;;;1.33;;
74624;SDS011;63131;52.298;8.056;2023-07-20T08:50:40;5.72;;;1.70;;
74624;SDS011;63131;52.298;8.056;2023-07-20T08:53:06;2.47;;;1.05;;
74624;SDS011;63131;52.298;8.056;2023-07-20T08:55:31;4.93;;;1.50;;
74624;SDS011;63131;52.298;8.056;2023-07-20T08:57:57;4.75;;;1.80;;
74624;SDS011;63131;52.298;8.056;2023-07-20T09:00:23;6.05;;;2.03;;
74624;SDS011;63131;52.298;8.056;2023-07-20T09:02:52;4.72;;;1.90;;
74624;SDS011;63131;52.298;8.056;2023-07-20T09:05:18;5.00;;;1.40;;
74624;SDS011;63131;52.298;8.056;2023-07-20T09:07:43;3.35;;;1.20;;
74624;SDS011;63131;52.298;8.056;2023-07-20T09:10:09;5.90;;;1.77;;
74624;SDS011;63131;52.298;8.056;2023-07-20T09:12:35;5.45;;;1.65;;
74624;SDS011;63131;52.298;8.056;2023-07-20T09:15:02;2.50;;;1.13;;
74624;SDS011;63131;52.298;8.056;2023-07-20T09:17:27;3.78;;;1.35;;
74624;SDS011;63131;52.298;8.056;2023-07-20T09:19:52;3.53;;;1.30;;
74624;SDS011;63131;52.298;8.056;2023-07-20T09:22:17;2.03;;;1.13;;
74624;SDS011;63131;52.298;8.056;2023-07-20T09:24:44;4.20;;;1.23;;
74624;SDS011;63131;52.298;8.056;2023-07-20T09:27:09;2.50;;;0.90;;
74624;SDS011;63131;52.298;8.056;2023-07-20T09:29:46;2.95;;;1.00;;
74624;SDS011;63131;52.298;8.056;2023-07-20T09:32:12;2.22;;;1.00;;
74624;SDS011;63131;52.298;8.056;2023-07-20T09:34:37;2.90;;;1.10;;
74624;SDS011;63131;52.298;8.056;2023-07-20T09:37:02;4.07;;;1.40;;
74624;SDS011;63131;52.298;8.056;2023-07-20T09:39:27;3.25;;;1.38;;
74624;SDS011;63131;52.298;8.056;2023-07-20T09:41:53;6.40;;;1.60;;
74624;SDS011;63131;52.298;8.056;2023-07-20T09:44:19;3.10;;;1.40;;
74624;SDS011;63131;52.298;8.056;2023-07-20T09:46:48;2.20;;;1.10;;
74624;SDS011;63131;52.298;8.056;2023-07-20T09:49:13;5.07;;;1.30;;
74624;SDS011;63131;52.298;8.056;2023-07-20T09:51:39;6.05;;;1.00;;
74624;SDS011;63131;52.298;8.056;2023-07-20T09:54:04;0.80;;;0.80;;
74624;SDS011;63131;52.298;8.056;2023-07-20T09:56:30;2.13;;;1.02;;
74624;SDS011;63131;52.298;8.056;2023-07-20T09:58:56;2.38;;;1.08;;
74624;SDS011;63131;52.298;8.056;2023-07-20T10:01:21;3.67;;;1.30;;
74624;SDS011;63131;52.298;8.056;2023-07-20T10:03:47;2.22;;;1.00;;
74624;SDS011;63131;52.298;8.056;2023-07-20T10:06:15;3.42;;;1.50;;
74624;SDS011;63131;52.298;8.056;2023-07-20T10:08:40;4.95;;;1.70;;
74624;SDS011;63131;52.298;8.056;2023-07-20T10:11:06;4.50;;;1.90;;
74624;SDS011;63131;52.298;8.056;2023-07-20T10:13:32;3.47;;;1.63;;
74624;SDS011;63131;52.298;8.056;2023-07-20T10:16:03;3.53;;;1.42;;
74624;SDS011;63131;52.298;8.056;2023-07-20T10:18:30;3.95;;;1.80;;
74624;SDS011;63131;52.298;8.056;2023-07-20T10:20:56;5.15;;;2.10;;
74624;SDS011;63131;52.298;8.056;2023-07-20T10:23:24;8.20;;;2.58;;
74624;SDS011;63131;52.298;8.056;2023-07-20T10:25:49;5.27;;;2.50;;
74624;SDS011;63131;52.298;8.056;2023-07-20T10:28:15;5.65;;;2.95;;
74624;SDS011;63131;52.298;8.056;2023-07-20T10:30:40;6.28;;;3.38;;
74624;SDS011;63131;52.298;8.056;2023-07-20T10:33:06;7.18;;;3.50;;
74624;SDS011;63131;52.298;8.056;2023-07-20T10:35:50;5.80;;;3.27;;
74624;SDS011;63131;52.298;8.056;2023-07-20T10:38:15;6.70;;;3.90;;
74624;SDS011;63131;52.298;8.056;2023-07-20T10:40:40;6.67;;;4.33;;
74624;SDS011;63131;52.298;8.056;2023-07-20T10:43:06;6.67;;;4.43;;
74624;SDS011;63131;52.298;8.056;2023-07-20T10:45:51;7.38;;;4.05;;
74624;SDS011;63131;52.298;8.056;2023-07-20T10:48:20;6.82;;;4.35;;
74624;SDS011;63131;52.298;8.056;2023-07-20T10:50:46;6.35;;;3.58;;
74624;SDS011;63131;52.298;8.056;2023-07-20T10:53:31;5.93;;;3.13;;
74624;SDS011;63131;52.298;8.056;2023-07-20T10:56:12;5.97;;;3.20;;
74624;SDS011;63131;52.298;8.056;2023-07-20T10:58:38;5.97;;;2.60;;
74624;SDS011;63131;52.298;8.056;2023-07-20T11:01:04;5.88;;;2.80;;
74624;SDS011;63131;52.298;8.056;2023-07-20T11:03:31;5.80;;;2.28;;
74624;SDS011;63131;52.298;8.056;2023-07-20T11:05:57;6.68;;;3.00;;
74624;SDS011;63131;52.298;8.056;2023-07-20T11:08:39;3.88;;;1.80;;
74624;SDS011;63131;52.298;8.056;2023-07-20T11:13:53;3.08;;;1.20;;
74624;SDS011;63131;52.298;8.056;2023-07-20T11:16:18;5.10;;;1.50;;
74624;SDS011;63131;52.298;8.056;2023-07-20T11:18:44;2.27;;;1.13;;
74624;SDS011;63131;52.298;8.056;2023-07-20T11:21:10;4.07;;;1.50;;
74624;SDS011;63131;52.298;8.056;2023-07-20T11:23:35;3.70;;;1.50;;
74624;SDS011;63131;52.298;8.056;2023-07-20T11:26:02;3.28;;;1.35;;
74624;SDS011;63131;52.298;8.056;2023-07-20T11:28:30;4.43;;;1.77;;
74624;SDS011;63131;52.298;8.056;2023-07-20T11:30:55;4.30;;;1.40;;
74624;SDS011;63131;52.298;8.056;2023-07-20T11:33:20;5.37;;;2.27;;
74624;SDS011;63131;52.298;8.056;2023-07-20T11:35:45;3.47;;;1.40;;
74624;SDS011;63131;52.298;8.056;2023-07-20T11:38:15;2.00;;;0.93;;
74624;SDS011;63131;52.298;8.056;2023-07-20T11:40:44;4.13;;;1.70;;
74624;SDS011;63131;52.298;8.056;2023-07-20T11:43:09;2.88;;;1.10;;
74624;SDS011;63131;52.298;8.056;2023-07-20T11:45:35;2.88;;;1.23;;
74624;SDS011;63131;52.298;8.056;2023-07-20T11:48:02;4.15;;;1.20;;
74624;SDS011;63131;52.298;8.056;2023-07-20T11:50:27;2.53;;;0.97;;
74624;SDS011;63131;52.298;8.056;2023-07-20T11:52:52;2.17;;;1.00;;
74624;SDS011;63131;52.298;8.056;2023-07-20T11:55:18;4.07;;;1.30;;
74624;SDS011;63131;52.298;8.056;2023-07-20T11:58:00;3.03;;;1.17;;
74624;SDS011;63131;52.298;8.056;2023-07-20T12:00:25;2.90;;;1.00;;
74624;SDS011;63131;52.298;8.056;2023-07-20T12:02:51;1.87;;;0.90;;
74624;SDS011;63131;52.298;8.056;2023-07-20T12:05:18;3.05;;;1.08;;
74624;SDS011;63131;52.298;8.056;2023-07-20T12:07:44;1.63;;;0.90;;
74624;SDS011;63131;52.298;8.056;2023-07-20T12:10:12;2.53;;;1.00;;
74624;SDS011;63131;52.298;8.056;2023-07-20T12:12:37;2.58;;;1.17;;
74624;SDS011;63131;52.298;8.056;2023-07-20T12:17:51;3.90;;;1.02;;
74624;SDS011;63131;52.298;8.056;2023-07-20T12:22:56;3.45;;;1.30;;
74624;SDS011;63131;52.298;8.056;2023-07-20T12:25:21;3.55;;;1.23;;
74624;SDS011;63131;52.298;8.056;2023-07-20T12:27:47;3.10;;;1.20;;
74624;SDS011;63131;52.298;8.056;2023-07-20T12:30:13;3.70;;;1.30;;
74624;SDS011;63131;52.298;8.056;2023-07-20T12:32:39;2.30;;;1.00;;
74624;SDS011;63131;52.298;8.056;2023-07-20T12:35:04;2.28;;;1.00;;
74624;SDS011;63131;52.298;8.056;2023-07-20T12:37:29;2.60;;;1.02;;
74624;SDS011;63131;52.298;8.056;2023-07-20T12:39:55;2.27;;;0.90;;
74624;SDS011;63131;52.298;8.056;2023-07-20T12:42:20;1.63;;;0.80;;
74624;SDS011;63131;52.298;8.056;2023-07-20T12:44:45;1.97;;;1.00;;
74624;SDS011;63131;52.298;8.056;2023-07-20T12:47:10;3.28;;;0.90;;
74624;SDS011;63131;52.298;8.056;2023-07-20T12:49:36;2.73;;;1.10;;
74624;SDS011;63131;52.298;8.056;2023-07-20T12:52:01;2.80;;;0.90;;
74624;SDS011;63131;52.298;8.056;2023-07-20T12:54:26;2.60;;;1.00;;
74624;SDS011;63131;52.298;8.056;2023-07-20T12:56:51;1.80;;;0.90;;
74624;SDS011;63131;52.298;8.056;2023-07-20T12:59:16;2.57;;;1.00;;
74624;SDS011;63131;52.298;8.056;2023-07-20T13:01:41;6.17;;;1.20;;
74624;SDS011;63131;52.298;8.056;2023-07-20T13:04:08;3.05;;;1.17;;
74624;SDS011;63131;52.298;8.056;2023-07-20T13:06:34;2.13;;;1.00;;
74624;SDS011;63131;52.298;8.056;2023-07-20T13:08:59;2.38;;;0.88;;
74624;SDS011;63131;52.298;8.056;2023-07-20T13:11:25;3.22;;;1.10;;
74624;SDS011;63131;52.298;8.056;2023-07-20T13:13:50;1.87;;;0.87;;
74624;SDS011;63131;52.298;8.056;2023-07-20T13:16:15;3.00;;;1.17;;
74624;SDS011;63131;52.298;8.056;2023-07-20T13:18:40;2.73;;;1.20;;
74624;SDS011;63131;52.298;8.056;2023-07-20T13:21:05;4.27;;;1.40;;
74624;SDS011;63131;52.298;8.056;2023-07-20T13:23:35;3.65;;;1.30;;
74624;SDS011;63131;52.298;8.056;2023-07-20T13:26:00;1.80;;;1.00;;
74624;SDS011;63131;52.298;8.056;2023-07-20T13:28:25;2.37;;;1.00;;
74624;SDS011;63131;52.298;8.056;2023-07-20T13:30:50;3.03;;;1.27;;
74624;SDS011;63131;52.298;8.056;2023-07-20T13:33:15;2.77;;;1.47;;
74624;SDS011;63131;52.298;8.056;2023-07-20T13:35:41;3.60;;;1.10;;
74624;SDS011;63131;52.298;8.056;2023-07-20T13:38:06;2.90;;;1.23;;
74624;SDS011;63131;52.298;8.056;2023-07-20T13:40:31;2.37;;;1.20;;
74624;SDS011;63131;52.298;8.056;2023-07-20T13:42:57;2.38;;;1.20;;
74624;SDS011;63131;52.298;8.056;2023-07-20T13:45:22;3.30;;;1.27;;
74624;SDS011;63131;52.298;8.056;2023-07-20T13:47:47;1.77;;;0.90;;
74624;SDS011;63131;52.298;8.056;2023-07-20T13:50:12;2.25;;;0.85;;
74624;SDS011;63131;52.298;8.056;2023-07-20T13:52:38;1.90;;;0.90;;
74624;SDS011;63131;52.298;8.056;2023-07-20T13:55:03;1.67;;;0.90;;
74624;SDS011;63131;52.298;8.056;2023-07-20T13:57:29;2.25;;;0.80;;
74624;SDS011;63131;52.298;8.056;2023-07-20T13:59:54;3.47;;;0.90;;
74624;SDS011;63131;52.298;8.056;2023-07-20T14:02:19;1.40;;;0.80;;
74624;SDS011;63131;52.298;8.056;2023-07-20T14:04:45;0.67;;;0.67;;
74624;SDS011;63131;52.298;8.056;2023-07-20T14:07:10;1.92;;;0.80;;
74624;SDS011;63131;52.298;8.056;2023-07-20T14:09:36;1.45;;;0.70;;
74624;SDS011;63131;52.298;8.056;2023-07-20T14:12:01;3.17;;;0.80;;
74624;SDS011;63131;52.298;8.056;2023-07-20T14:14:26;3.00;;;0.90;;
74624;SDS011;63131;52.298;8.056;2023-07-20T14:16:51;0.83;;;0.70;;
74624;SDS011;63131;52.298;8.056;2023-07-20T14:19:16;1.80;;;0.70;;
74624;SDS011;63131;52.298;8.056;2023-07-20T14:21:42;3.47;;;1.10;;
74624;SDS011;63131;52.298;8.056;2023-07-20T14:24:07;2.50;;;0.90;;
74624;SDS011;63131;52.298;8.056;2023-07-20T14:26:32;2.03;;;0.90;;
74624;SDS011;63131;52.298;8.056;2023-07-20T14:28:57;2.77;;;1.00;;
74624;SDS011;63131;52.298;8.056;2023-07-20T14:31:23;1.23;;;0.70;;
74624;SDS011;63131;52.298;8.056;2023-07-20T14:33:48;3.17;;;0.83;;
74624;SDS011;63131;52.298;8.056;2023-07-20T14:36:13;1.37;;;1.07;;
74624;SDS011;63131;52.298;8.056;2023-07-20T14:38:38;3.13;;;1.00;;
74624;SDS011;63131;52.298;8.056;2023-07-20T14:41:05;2.20;;;0.95;;
74624;SDS011;63131;52.298;8.056;2023-07-20T14:43:31;1.90;;;0.80;;
74624;SDS011;63131;52.298;8.056;2023-07-20T14:45:56;2.53;;;0.73;;
74624;SDS011;63131;52.298;8.056;2023-07-20T14:48:21;3.05;;;0.88;;
74624;SDS011;63131;52.298;8.056;2023-07-20T14:50:46;0.80;;;0.70;;
74624;SDS011;63131;52.298;8.056;2023-07-20T14:53:12;1.45;;;0.75;;
74624;SDS011;63131;52.298;8.056;2023-07-20T14:55:37;2.75;;;0.80;;
74624;SDS011;63131;52.298;8.056;2023-07-20T14:58:03;2.60;;;0.80;;
74624;SDS011;63131;52.298;8.056;2023-07-20T15:00:28;2.53;;;0.83;;
74624;SDS011;63131;52.298;8.056;2023-07-20T15:02:55;2.13;;;0.90;;
74624;SDS011;63131;52.298;8.056;2023-07-20T15:05:24;2.90;;;1.10;;
74624;SDS011;63131;52.298;8.056;2023-07-20T15:07:51;1.65;;;0.73;;
74624;SDS011;63131;52.298;8.056;2023-07-20T15:10:16;1.37;;;0.80;;
74624;SDS011;63131;52.298;8.056;2023-07-20T15:12:41;1.00;;;0.80;;
74624;SDS011;63131;52.298;8.056;2023-07-20T15:15:11;1.75;;;0.80;;
74624;SDS011;63131;52.298;8.056;2023-07-20T15:17:36;2.35;;;0.90;;
74624;SDS011;63131;52.298;8.056;2023-07-20T15:20:02;1.33;;;0.60;;
74624;SDS011;63131;52.298;8.056;2023-07-20T15:22:31;2.20;;;0.80;;
74624;SDS011;63131;52.298;8.056;2023-07-20T15:24:56;2.58;;;0.73;;
74624;SDS011;63131;52.298;8.056;2023-07-20T15:27:21;2.17;;;0.90;;
74624;SDS011;63131;52.298;8.056;2023-07-20T15:29:47;1.37;;;0.70;;
74624;SDS011;63131;52.298;8.056;2023-07-20T15:32:13;1.42;;;0.77;;
74624;SDS011;63131;52.298;8.056;2023-07-20T15:34:38;1.50;;;0.80;;
74624;SDS011;63131;52.298;8.056;2023-07-20T15:37:03;2.10;;;0.90;;
74624;SDS011;63131;52.298;8.056;2023-07-20T15:39:30;2.92;;;1.10;;
74624;SDS011;63131;52.298;8.056;2023-07-20T15:41:55;3.03;;;1.00;;
74624;SDS011;63131;52.298;8.056;2023-07-20T15:44:20;1.20;;;0.67;;
74624;SDS011;63131;52.298;8.056;2023-07-20T15:46:46;2.73;;;1.00;;
74624;SDS011;63131;52.298;8.056;2023-07-20T15:49:13;2.75;;;1.00;;
74624;SDS011;63131;52.298;8.056;2023-07-20T15:51:38;2.17;;;0.90;;
74624;SDS011;63131;52.298;8.056;2023-07-20T15:54:06;2.00;;;0.88;;
74624;SDS011;63131;52.298;8.056;2023-07-20T15:56:35;2.15;;;0.80;;
74624;SDS011;63131;52.298;8.056;2023-07-20T15:59:01;2.72;;;1.00;;
74624;SDS011;63131;52.298;8.056;2023-07-20T16:01:26;2.10;;;0.97;;
74624;SDS011;63131;52.298;8.056;2023-07-20T16:03:51;0.80;;;0.80;;
74624;SDS011;63131;52.298;8.056;2023-07-20T16:06:16;1.67;;;0.97;;
74624;SDS011;63131;52.298;8.056;2023-07-20T16:08:41;1.90;;;0.90;;
74624;SDS011;63131;52.298;8.056;2023-07-20T16:11:06;1.63;;;0.80;;
74624;SDS011;63131;52.298;8.056;2023-07-20T16:13:32;1.87;;;0.70;;
74624;SDS011;63131;52.298;8.056;2023-07-20T16:15:57;2.33;;;1.10;;
74624;SDS011;63131;52.298;8.056;2023-07-20T16:18:22;0.97;;;0.80;;
74624;SDS011;63131;52.298;8.056;2023-07-20T16:20:47;1.67;;;0.90;;
74624;SDS011;63131;52.298;8.056;2023-07-20T16:23:13;1.25;;;0.90;;
74624;SDS011;63131;52.298;8.056;2023-07-20T16:25:38;1.75;;;0.90;;
74624;SDS011;63131;52.298;8.056;2023-07-20T16:28:03;2.17;;;0.87;;
74624;SDS011;63131;52.298;8.056;2023-07-20T16:30:31;1.65;;;0.77;;
74624;SDS011;63131;52.298;8.056;2023-07-20T16:32:57;2.33;;;1.03;;
74624;SDS011;63131;52.298;8.056;2023-07-20T16:35:22;1.77;;;0.90;;
74624;SDS011;63131;52.298;8.056;2023-07-20T16:37:47;1.08;;;0.90;;
74624;SDS011;63131;52.298;8.056;2023-07-20T16:40:12;2.10;;;0.90;;
74624;SDS011;63131;52.298;8.056;2023-07-20T16:42:40;2.95;;;1.20;;
74624;SDS011;63131;52.298;8.056;2023-07-20T16:45:05;1.67;;;0.90;;
74624;SDS011;63131;52.298;8.056;2023-07-20T16:47:30;1.80;;;0.88;;
74624;SDS011;63131;52.298;8.056;2023-07-20T16:49:55;2.17;;;1.10;;
74624;SDS011;63131;52.298;8.056;2023-07-20T16:52:21;1.77;;;1.08;;
74624;SDS011;63131;52.298;8.056;2023-07-20T16:54:46;2.47;;;1.20;;
74624;SDS011;63131;52.298;8.056;2023-07-20T16:57:11;3.13;;;1.33;;
74624;SDS011;63131;52.298;8.056;2023-07-20T16:59:37;2.27;;;1.20;;